Time;durP1;ratioP1;P1;durP2;ratioP2;P2;SDS_P1;SDS_P2;PMS_P1;PMS_P2;Temp;Humidity;BMP_temperature;BMP_pressure;BME280_temperature;BME280_humidity;BME280_pressure;Samples;Min_cycle;Max_cycle;Signal;HPM_P1;HPM_P2
2021/12/27 00:00:12;;;;;;;13.90;5.00;;;;;;;3.66;41.03;98253.19;4488928;31;20130;-85
2021/12/27 00:02:38;;;;;;;14.00;5.40;;;;;;;3.68;41.57;98253.97;4503140;31;20147;-85
2021/12/27 00:05:04;;;;;;;14.77;5.32;;;;;;;3.62;41.77;98258.56;4503075;31;20107;-85
2021/12/27 00:07:29;;;;;;;13.65;5.45;;;;;;;3.61;42.31;98256.84;4488695;31;20123;-84
2021/12/27 00:09:55;;;;;;;13.90;5.05;;;;;;;3.55;42.21;98260.50;4502858;31;20081;-85
2021/12/27 00:12:20;;;;;;;14.65;5.68;;;;;;;3.53;42.64;98258.00;4503031;31;20456;-84
2021/12/27 00:14:46;;;;;;;16.08;5.65;;;;;;;3.58;42.49;98255.22;4502956;31;20075;-85
2021/12/27 00:17:11;;;;;;;15.85;5.47;;;;;;;3.60;42.31;98261.22;4503227;31;20131;-84
2021/12/27 00:19:39;;;;;;;16.33;5.82;;;;;;;3.61;41.66;98249.91;4488640;31;20356;-84
2021/12/27 00:22:04;;;;;;;20.65;7.90;;;;;;;3.56;41.95;98248.37;4502842;31;20565;-84
2021/12/27 00:24:29;;;;;;;18.05;7.70;;;;;;;3.35;41.69;98248.19;4502846;31;20104;-83
2021/12/27 00:26:55;;;;;;;20.70;8.65;;;;;;;3.51;41.62;98248.50;4502939;31;20127;-83
2021/12/27 00:29:21;;;;;;;21.23;9.25;;;;;;;3.32;41.73;98249.16;4502985;31;20087;-85
2021/12/27 00:31:47;;;;;;;19.62;8.93;;;;;;;3.41;41.56;98249.75;4502963;31;20147;-85
2021/12/27 00:34:13;;;;;;;20.98;8.45;;;;;;;3.48;41.50;98252.09;4488540;31;20081;-85
2021/12/27 00:36:38;;;;;;;19.98;8.70;;;;;;;3.47;42.00;98245.16;4502665;31;20368;-85
2021/12/27 00:39:03;;;;;;;20.08;8.45;;;;;;;3.49;42.35;98258.13;4502723;31;20164;-84
2021/12/27 00:41:29;;;;;;;22.02;8.57;;;;;;;3.47;42.53;98266.00;4502478;31;20106;-84
2021/12/27 00:43:54;;;;;;;19.80;8.77;;;;;;;3.44;43.08;98260.03;4502217;31;20105;-84
2021/12/27 00:46:19;;;;;;;19.75;8.32;;;;;;;3.34;43.51;98260.38;4502717;31;20132;-85
2021/12/27 00:48:45;;;;;;;18.87;7.43;;;;;;;3.43;43.20;98248.78;4502818;31;20107;-84
2021/12/27 00:51:13;;;;;;;18.42;8.07;;;;;;;3.41;43.10;98261.00;4502663;31;20107;-84
2021/12/27 00:53:38;;;;;;;18.33;7.72;;;;;;;3.51;42.65;98256.31;4488288;31;20365;-84
2021/12/27 00:56:04;;;;;;;19.05;7.10;;;;;;;3.50;42.70;98257.25;4502674;31;20135;-84
2021/12/27 00:58:30;;;;;;;21.42;7.72;;;;;;;3.56;43.19;98258.78;4502647;31;20148;-84
2021/12/27 01:00:55;;;;;;;19.08;7.93;;;;;;;3.52;42.96;98250.22;4488246;31;20115;-84
2021/12/27 01:03:21;;;;;;;19.23;7.97;;;;;;;3.63;42.56;98244.62;4502616;31;20068;-84
2021/12/27 01:05:47;;;;;;;18.60;8.45;;;;;;;3.62;43.00;98246.38;4502470;31;20165;-84
2021/12/27 01:08:12;;;;;;;19.98;8.43;;;;;;;3.65;43.02;98248.03;4488257;31;20103;-84
2021/12/27 01:13:38;;;;;;;21.87;8.63;;;;;;;3.54;43.15;98241.44;4502598;31;20461;-84
2021/12/27 01:18:32;;;;;;;20.12;8.48;;;;;;;3.64;42.96;98243.72;4488585;31;20176;-85
2021/12/27 01:20:57;;;;;;;21.25;9.05;;;;;;;3.58;43.59;98241.34;4487875;31;20382;-84
2021/12/27 01:23:23;;;;;;;22.13;8.38;;;;;;;3.50;43.70;98245.06;4488112;31;20080;-84
2021/12/27 01:25:48;;;;;;;20.15;7.95;;;;;;;3.66;43.00;98244.53;4502295;31;20096;-84
2021/12/27 01:28:16;;;;;;;17.65;7.75;;;;;;;3.67;43.26;98247.09;4487874;31;20477;-84
2021/12/27 01:30:47;;;;;;;18.55;8.00;;;;;;;3.62;43.38;98246.38;4502625;31;20080;-84
2021/12/27 01:33:14;;;;;;;20.62;8.13;;;;;;;3.61;43.42;98241.22;4502350;31;20072;-84
2021/12/27 01:35:40;;;;;;;22.08;8.43;;;;;;;3.56;43.98;98243.16;4502302;31;20380;-84
2021/12/27 01:38:05;;;;;;;21.23;8.88;;;;;;;3.53;43.96;98238.88;4488019;31;20118;-84
2021/12/27 01:40:31;;;;;;;21.62;9.18;;;;;;;3.45;44.59;98243.53;4487726;31;20110;-84
2021/12/27 01:43:09;;;;;;;20.12;8.32;;;;;;;3.50;43.90;98242.47;4501895;31;20446;-86
2021/12/27 01:45:40;;;;;;;19.12;8.98;;;;;;;3.52;43.84;98240.66;4487725;31;20422;-86
2021/12/27 01:48:08;;;;;;;19.02;7.80;;;;;;;3.43;43.82;98233.16;4502130;31;20116;-85
2021/12/27 01:50:39;;;;;;;22.37;8.90;;;;;;;3.45;44.27;98236.56;4487776;31;20092;-86
2021/12/27 01:53:05;;;;;;;21.95;9.15;;;;;;;3.41;44.09;98234.97;4487719;31;20103;-86
2021/12/27 01:55:31;;;;;;;21.37;8.27;;;;;;;3.43;44.08;98235.75;4488521;31;20126;-84
2021/12/27 01:57:57;;;;;;;19.50;8.43;;;;;;;3.35;44.23;98222.16;4504142;31;20386;-84
2021/12/27 02:00:22;;;;;;;17.27;8.00;;;;;;;3.37;43.98;98229.94;4503919;31;20093;-84
2021/12/27 02:02:47;;;;;;;18.80;8.02;;;;;;;3.39;44.13;98235.94;4503928;31;20076;-84
2021/12/27 02:05:14;;;;;;;19.25;8.82;;;;;;;3.41;43.88;98234.97;4503949;31;20126;-84
2021/12/27 02:07:40;;;;;;;21.25;7.90;;;;;;;3.42;44.16;98233.19;4504059;31;20475;-85
2021/12/27 02:10:06;;;;;;;22.73;8.95;;;;;;;3.49;43.63;98238.13;4503923;31;20142;-85
2021/12/27 02:12:32;;;;;;;20.90;8.05;;;;;;;3.50;43.48;98237.25;4489483;31;20084;-85
2021/12/27 02:14:58;;;;;;;20.88;7.70;;;;;;;3.39;43.34;98236.78;4503792;31;20600;-84
2021/12/27 02:17:24;;;;;;;17.65;7.30;;;;;;;3.47;43.55;98231.28;4503776;31;20100;-85
2021/12/27 02:19:51;;;;;;;16.40;6.85;;;;;;;3.51;42.62;98238.09;4489409;31;20084;-84
2021/12/27 02:22:16;;;;;;;18.50;7.78;;;;;;;3.54;42.31;98244.06;4476109;31;20092;-85
2021/12/27 02:24:42;;;;;;;16.98;7.07;;;;;;;3.53;42.63;98241.50;4503761;31;20135;-85
2021/12/27 02:27:07;;;;;;;18.48;7.18;;;;;;;3.45;42.29;98236.56;4503733;31;20099;-85
2021/12/27 02:29:33;;;;;;;18.60;7.78;;;;;;;3.52;42.35;98240.66;4503695;31;20153;-85
2021/12/27 02:31:59;;;;;;;19.40;7.40;;;;;;;3.41;42.03;98236.72;4489354;31;20096;-85
2021/12/27 02:34:24;;;;;;;18.58;7.85;;;;;;;3.47;41.13;98233.91;4489367;31;20101;-85
2021/12/27 02:36:50;;;;;;;17.33;7.18;;;;;;;3.51;41.27;98236.34;4503830;31;20104;-84
2021/12/27 02:39:16;;;;;;;21.25;7.65;;;;;;;3.37;41.32;98233.37;4503679;31;20119;-84
2021/12/27 02:41:42;;;;;;;17.50;7.12;;;;;;;3.47;41.06;98229.53;4475932;31;20084;-83
2021/12/27 02:44:07;;;;;;;24.48;8.20;;;;;;;3.54;41.64;98228.44;4503615;31;20114;-84
2021/12/27 02:46:34;;;;;;;16.83;7.18;;;;;;;3.47;41.67;98232.13;4503656;31;20157;-84
2021/12/27 02:48:59;;;;;;;19.27;7.70;;;;;;;3.55;41.76;98229.28;4489409;31;20596;-84
2021/12/27 02:51:25;;;;;;;19.45;7.10;;;;;;;3.52;42.78;98232.00;4489344;31;20084;-84
2021/12/27 02:53:50;;;;;;;17.62;6.93;;;;;;;3.58;42.98;98229.16;4503572;31;20137;-84
2021/12/27 02:56:17;;;;;;;19.15;7.62;;;;;;;3.56;42.93;98230.97;4489164;31;20189;-84
2021/12/27 02:58:43;;;;;;;18.35;7.25;;;;;;;3.54;42.59;98225.81;4489274;31;20092;-84
2021/12/27 03:01:12;;;;;;;18.83;7.37;;;;;;;3.32;41.68;98237.88;4503431;31;20068;-83
2021/12/27 03:03:38;;;;;;;20.17;7.03;;;;;;;3.45;41.29;98235.72;4489242;31;20124;-85
2021/12/27 03:06:04;;;;;;;17.12;6.80;;;;;;;3.46;41.22;98229.62;4488892;31;20096;-85
2021/12/27 03:08:30;;;;;;;15.93;6.80;;;;;;;3.27;40.59;98221.59;4489163;31;20080;-84
2021/12/27 03:10:57;;;;;;;16.58;6.57;;;;;;;3.39;39.07;98215.94;4503438;31;20453;-85
2021/12/27 03:13:35;;;;;;;17.33;6.95;;;;;;;3.49;38.71;98216.47;4503490;31;20156;-84
2021/12/27 03:16:05;;;;;;;17.85;7.28;;;;;;;3.47;39.37;98226.94;4503830;31;20512;-84
2021/12/27 03:18:32;;;;;;;17.80;6.70;;;;;;;3.28;39.56;98213.72;4489245;31;20390;-84
2021/12/27 03:20:58;;;;;;;15.75;6.25;;;;;;;3.29;39.68;98209.34;4503356;31;20352;-84
2021/12/27 03:23:24;;;;;;;16.25;6.30;;;;;;;3.42;39.67;98214.97;4503318;31;20115;-84
2021/12/27 03:25:50;;;;;;;15.77;6.18;;;;;;;3.43;39.97;98217.53;4489115;31;20093;-84
2021/12/27 03:28:16;;;;;;;16.20;6.72;;;;;;;3.44;39.05;98202.75;4503483;31;20110;-84
2021/12/27 03:30:41;;;;;;;16.37;6.60;;;;;;;3.44;39.01;98213.16;4475708;31;20542;-85
2021/12/27 03:33:07;;;;;;;17.10;6.62;;;;;;;3.62;39.46;98211.69;4488976;31;20092;-84
2021/12/27 03:35:38;;;;;;;17.42;6.50;;;;;;;3.57;40.02;98213.59;4503305;31;20096;-84
2021/12/27 03:38:09;;;;;;;15.15;6.45;;;;;;;3.63;39.23;98208.16;4503450;31;20568;-85
2021/12/27 03:40:35;;;;;;;18.58;6.72;;;;;;;3.51;38.21;98204.25;4503176;31;20469;-86
2021/12/27 03:43:01;;;;;;;15.38;6.50;;;;;;;3.54;38.21;98204.16;4503055;31;20144;-86
2021/12/27 03:45:35;;;;;;;20.60;6.75;;;;;;;3.38;38.23;98206.44;4488928;31;20092;-86
2021/12/27 03:48:01;;;;;;;18.73;6.60;;;;;;;3.59;38.44;98201.38;4488850;31;20083;-85
2021/12/27 03:50:26;;;;;;;14.87;6.00;;;;;;;3.68;38.60;98207.09;4503275;31;20174;-86
2021/12/27 03:52:53;;;;;;;18.30;6.90;;;;;;;3.58;38.31;98213.53;4475700;31;20104;-85
2021/12/27 03:55:18;;;;;;;16.98;6.82;;;;;;;3.68;38.62;98212.31;4476033;31;20155;-85
2021/12/27 03:57:52;;;;;;;16.10;6.12;;;;;;;3.71;38.74;98217.41;4503517;31;20084;-86
2021/12/27 04:02:47;;;;;;;16.42;6.18;;;;;;;3.64;38.41;98213.31;4503093;31;20526;-85
2021/12/27 04:05:13;;;;;;;16.10;5.53;;;;;;;3.36;38.55;98216.03;4503044;31;20471;-85
2021/12/27 04:07:40;;;;;;;14.20;5.53;;;;;;;3.50;38.18;98212.97;4503225;31;20123;-85
2021/12/27 04:10:08;;;;;;;17.55;5.80;;;;;;;3.58;38.64;98202.28;4488757;31;20103;-85
2021/12/27 04:12:34;;;;;;;16.17;5.55;;;;;;;3.68;39.40;98208.84;4503140;31;20101;-85
2021/12/27 04:15:00;;;;;;;16.37;5.75;;;;;;;3.70;39.20;98210.50;4475545;31;20143;-86
2021/12/27 04:17:25;;;;;;;15.27;5.45;;;;;;;3.55;38.20;98213.62;4487790;31;20180;-85
2021/12/27 04:19:51;;;;;;;15.98;5.78;;;;;;;3.31;38.26;98216.22;4488874;31;20462;-85
2021/12/27 04:22:17;;;;;;;16.87;5.70;;;;;;;3.50;37.86;98219.03;4503273;31;20131;-85
2021/12/27 04:24:43;;;;;;;14.57;5.62;;;;;;;3.60;38.41;98221.31;4475781;31;20127;-85
2021/12/27 04:27:08;;;;;;;15.35;5.28;;;;;;;3.63;38.28;98211.63;4503156;31;20379;-85
2021/12/27 04:29:34;;;;;;;14.93;4.97;;;;;;;3.37;38.05;98209.94;4488774;31;20095;-85
2021/12/27 04:31:59;;;;;;;16.12;5.80;;;;;;;3.44;37.52;98208.81;4475759;31;20448;-85
2021/12/27 04:34:24;;;;;;;16.00;5.30;;;;;;;3.41;37.89;98206.31;4503112;31;20096;-85
2021/12/27 04:36:50;;;;;;;14.57;5.18;;;;;;;3.46;37.61;98206.19;4503092;31;20127;-85
2021/12/27 04:39:15;;;;;;;14.70;5.57;;;;;;;3.58;37.66;98199.69;4503088;31;20087;-85
2021/12/27 04:41:41;;;;;;;15.23;5.80;;;;;;;3.62;38.63;98199.50;4502845;31;20112;-84
2021/12/27 04:44:07;;;;;;;16.48;5.40;;;;;;;3.56;38.44;98204.94;4488792;31;20122;-84
2021/12/27 04:46:32;;;;;;;14.65;5.32;;;;;;;2.97;38.34;98200.03;4503073;31;20135;-84
2021/12/27 04:48:58;;;;;;;15.52;5.30;;;;;;;3.46;38.35;98201.81;4488751;31;20132;-84
2021/12/27 04:51:23;;;;;;;16.87;5.55;;;;;;;3.45;37.80;98199.25;4503136;31;20104;-84
2021/12/27 04:53:50;;;;;;;15.23;5.05;;;;;;;3.53;38.38;98194.63;4503045;31;20084;-84
2021/12/27 04:56:15;;;;;;;13.62;5.12;;;;;;;3.62;39.79;98201.28;4503047;31;20458;-84
2021/12/27 04:58:44;;;;;;;13.35;5.28;;;;;;;3.37;40.12;98201.28;4503126;31;20129;-84
2021/12/27 05:01:10;;;;;;;12.75;4.97;;;;;;;3.59;39.37;98204.81;4502811;31;20157;-84
2021/12/27 05:03:35;;;;;;;15.13;5.65;;;;;;;3.57;39.45;98198.81;4502749;31;20128;-85
2021/12/27 05:06:00;;;;;;;13.85;5.03;;;;;;;3.68;39.85;98196.66;4475148;31;20076;-85
2021/12/27 05:08:26;;;;;;;14.80;5.50;;;;;;;3.57;40.65;98205.78;4502571;31;20114;-85
2021/12/27 05:10:51;;;;;;;12.82;4.85;;;;;;;3.74;40.16;98200.81;4502557;31;20115;-85
2021/12/27 05:13:18;;;;;;;14.43;5.07;;;;;;;3.68;40.29;98206.25;4502393;31;20084;-84
2021/12/27 05:15:43;;;;;;;13.43;4.62;;;;;;;3.70;39.25;98210.50;4488492;31;20431;-85
2021/12/27 05:18:09;;;;;;;15.05;5.05;;;;;;;3.85;38.85;98209.09;4502549;31;20105;-85
2021/12/27 05:20:34;;;;;;;12.00;4.72;;;;;;;3.83;38.71;98203.09;4502321;31;20096;-86
2021/12/27 05:23:00;;;;;;;14.48;5.15;;;;;;;3.79;39.07;98200.66;4488004;31;20116;-85
2021/12/27 05:25:25;;;;;;;13.52;5.07;;;;;;;3.86;38.08;98203.00;4488146;31;20110;-85
2021/12/27 05:27:50;;;;;;;14.90;5.00;;;;;;;3.62;38.37;98202.09;4502410;31;20450;-85
2021/12/27 05:30:17;;;;;;;14.38;5.62;;;;;;;3.70;38.75;98197.47;4502225;31;20442;-85
2021/12/27 05:32:44;;;;;;;15.55;5.57;;;;;;;3.87;38.09;98202.06;4502244;31;20459;-85
2021/12/27 05:35:10;;;;;;;16.33;5.35;;;;;;;3.88;37.84;98208.13;4502395;31;20107;-85
2021/12/27 05:37:37;;;;;;;13.73;5.65;;;;;;;3.96;38.24;98211.31;4502279;31;20098;-85
2021/12/27 05:40:06;;;;;;;15.48;5.53;;;;;;;4.07;37.91;98198.69;4487930;31;20105;-85
2021/12/27 05:42:33;;;;;;;16.70;5.68;;;;;;;4.09;37.84;98204.72;4487786;31;20490;-85
2021/12/27 05:44:59;;;;;;;14.43;5.50;;;;;;;4.11;37.67;98200.31;4502143;31;20124;-85
2021/12/27 05:47:24;;;;;;;14.93;5.30;;;;;;;4.13;37.86;98193.28;4502209;31;20076;-85
2021/12/27 05:49:50;;;;;;;14.25;5.32;;;;;;;3.90;38.00;98198.50;4502155;31;20110;-85
2021/12/27 05:52:15;;;;;;;14.48;5.22;;;;;;;4.09;37.52;98198.66;4487645;31;20355;-85
2021/12/27 05:54:40;;;;;;;14.63;5.20;;;;;;;4.04;37.16;98200.59;4502202;31;20133;-84
2021/12/27 05:57:06;;;;;;;13.77;5.28;;;;;;;4.12;37.71;98202.00;4502258;31;20120;-85
2021/12/27 05:59:31;;;;;;;15.75;5.55;;;;;;;4.07;38.90;98203.91;4502160;31;20149;-85
2021/12/27 06:01:57;;;;;;;12.45;3.92;;;;;;;4.11;38.79;98196.84;4502202;31;20083;-85
2021/12/27 06:04:22;;;;;;;14.13;5.10;;;;;;;4.11;37.00;98197.72;4487808;31;20143;-85
2021/12/27 06:06:48;;;;;;;13.75;4.47;;;;;;;4.15;36.25;98195.81;4487803;31;20084;-85
2021/12/27 06:09:13;;;;;;;11.98;3.72;;;;;;;4.17;36.95;98195.75;4501835;31;20458;-85
2021/12/27 06:11:39;;;;;;;12.37;4.55;;;;;;;4.13;37.15;98193.28;4501965;31;20196;-85
2021/12/27 06:14:04;;;;;;;12.73;5.22;;;;;;;4.16;37.00;98194.06;4501984;31;20149;-85
2021/12/27 06:16:29;;;;;;;14.25;5.28;;;;;;;4.12;38.34;98191.56;4487368;31;20083;-84
2021/12/27 06:18:55;;;;;;;15.10;5.90;;;;;;;4.23;39.26;98182.47;4487338;31;20145;-85
2021/12/27 06:21:20;;;;;;;15.75;6.30;;;;;;;4.19;39.69;98191.34;4501695;31;20114;-85
2021/12/27 06:23:46;;;;;;;15.23;5.82;;;;;;;4.01;40.29;98185.06;4501576;31;20104;-85
2021/12/27 06:26:11;;;;;;;15.07;5.35;;;;;;;4.16;40.15;98183.66;4487233;31;20127;-85
2021/12/27 06:28:38;;;;;;;17.30;6.45;;;;;;;4.12;40.58;98175.94;4501608;31;20497;-84
2021/12/27 06:31:04;;;;;;;14.32;5.60;;;;;;;4.11;41.16;98179.47;4501480;31;20198;-86
2021/12/27 06:33:30;;;;;;;15.27;5.90;;;;;;;4.09;41.46;98185.63;4487333;31;20084;-85
2021/12/27 06:35:56;;;;;;;14.30;5.57;;;;;;;3.85;39.74;98185.63;4473945;31;20114;-85
2021/12/27 06:38:22;;;;;;;15.73;5.85;;;;;;;4.00;39.56;98189.44;4501383;31;20101;-84
2021/12/27 06:40:51;;;;;;;14.73;5.82;;;;;;;4.04;38.71;98188.41;4501503;31;20095;-85
2021/12/27 06:43:17;;;;;;;16.17;5.72;;;;;;;3.98;38.27;98182.56;4489516;31;20100;-85
2021/12/27 06:45:43;;;;;;;16.35;5.78;;;;;;;4.02;37.94;98179.81;4489427;31;20084;-85
2021/12/27 06:48:09;;;;;;;15.20;5.90;;;;;;;4.02;37.42;98178.94;4489362;31;20439;-85
2021/12/27 06:50:35;;;;;;;15.43;5.70;;;;;;;3.93;37.51;98177.53;4503665;31;20110;-86
2021/12/27 06:53:01;;;;;;;16.58;6.28;;;;;;;3.94;37.36;98179.25;4489307;31;20084;-86
2021/12/27 06:55:26;;;;;;;15.40;6.32;;;;;;;3.93;37.68;98175.78;4503922;31;20136;-86
2021/12/27 06:57:52;;;;;;;15.27;6.03;;;;;;;3.89;37.76;98179.41;4489702;31;20175;-86
2021/12/27 07:00:18;;;;;;;14.57;5.53;;;;;;;3.97;37.96;98183.50;4489463;31;20100;-85
2021/12/27 07:02:44;;;;;;;13.00;4.90;;;;;;;3.93;37.20;98180.16;4503595;31;20123;-92
2021/12/27 07:05:10;;;;;;;14.02;5.72;;;;;;;3.85;36.73;98177.81;4503732;31;20109;-95
2021/12/27 07:07:36;;;;;;;16.10;5.70;;;;;;;3.83;36.83;98179.63;4475991;31;20108;-85
2021/12/27 07:10:02;;;;;;;12.63;5.30;;;;;;;3.67;36.90;98178.50;4503559;31;20092;-86
2021/12/27 07:12:28;;;;;;;14.50;5.68;;;;;;;3.84;37.40;98177.88;4503482;31;20139;-89
2021/12/27 07:14:53;;;;;;;12.57;5.12;;;;;;;3.87;38.35;98177.78;4503408;31;20079;-86
2021/12/27 07:17:19;;;;;;;16.77;5.95;;;;;;;3.98;37.72;98179.97;4488980;31;20448;-84
2021/12/27 07:19:45;;;;;;;14.13;5.45;;;;;;;3.85;37.17;98179.59;4501001;31;20119;-84
2021/12/27 07:22:11;;;;;;;16.77;5.72;;;;;;;3.99;36.92;98184.28;4475961;31;20124;-85
2021/12/27 07:24:36;;;;;;;12.98;5.37;;;;;;;4.01;37.28;98178.09;4491709;31;20132;-85
2021/12/27 07:27:02;;;;;;;13.85;5.32;;;;;;;3.97;37.42;98183.50;4495704;31;20132;-85
2021/12/27 07:29:27;;;;;;;16.90;5.45;;;;;;;4.01;38.07;98182.47;4487770;31;20107;-83
2021/12/27 07:31:52;;;;;;;14.73;5.55;;;;;;;4.01;37.69;98175.50;4473549;32;20077;-85
2021/12/27 07:34:21;;;;;;;14.23;5.10;;;;;;;3.98;37.60;98174.75;4473585;32;20465;-82
2021/12/27 07:36:47;;;;;;;12.63;5.28;;;;;;;3.99;38.19;98179.91;4489658;31;20100;-82
2021/12/27 07:39:14;;;;;;;15.73;5.22;;;;;;;4.11;37.30;98181.19;4494301;31;20115;-82
2021/12/27 07:41:40;;;;;;;13.20;4.82;;;;;;;4.05;37.45;98181.44;4500271;31;20106;-83
2021/12/27 07:44:05;;;;;;;15.07;5.62;;;;;;;3.96;38.75;98182.66;4488610;31;20079;-82
2021/12/27 07:46:31;;;;;;;16.75;5.35;;;;;;;3.71;37.33;98183.56;4503147;31;20104;-82
2021/12/27 07:48:56;;;;;;;13.48;5.15;;;;;;;3.94;37.05;98182.69;4488599;31;20439;-82
2021/12/27 07:51:21;;;;;;;15.98;4.90;;;;;;;4.05;37.07;98182.28;4502981;31;20152;-82
2021/12/27 07:53:47;;;;;;;14.63;5.37;;;;;;;4.14;37.33;98179.31;4487556;31;20080;-84
2021/12/27 07:56:12;;;;;;;13.70;5.18;;;;;;;4.10;37.15;98180.34;4503005;31;20089;-89
2021/12/27 07:58:38;;;;;;;14.10;5.60;;;;;;;4.25;36.42;98178.06;4488355;31;20088;-88
2021/12/27 08:01:03;;;;;;;14.68;5.62;;;;;;;4.26;37.50;98188.44;4502500;31;20181;-83
2021/12/27 08:03:29;;;;;;;13.55;5.62;;;;;;;4.36;36.35;98175.03;4502606;31;20080;-90
2021/12/27 08:05:54;;;;;;;15.50;5.37;;;;;;;4.30;35.98;98178.75;4502729;31;20128;-86
2021/12/27 08:08:20;;;;;;;13.60;5.10;;;;;;;4.39;36.09;98173.16;4502823;31;20136;-88
2021/12/27 08:10:46;;;;;;;14.85;5.55;;;;;;;4.37;36.03;98176.75;4487202;31;20092;-88
2021/12/27 08:13:11;;;;;;;14.07;5.60;;;;;;;4.41;36.10;98175.72;4487299;31;20088;-87
2021/12/27 08:15:37;;;;;;;15.48;5.50;;;;;;;4.57;36.08;98168.12;4502947;31;20099;-88
2021/12/27 08:18:02;;;;;;;15.13;5.55;;;;;;;4.68;35.80;98166.78;4488987;31;20123;-88
2021/12/27 08:20:28;;;;;;;16.00;5.78;;;;;;;4.70;35.20;98166.72;4489013;31;20440;-88
2021/12/27 08:22:53;;;;;;;13.07;5.18;;;;;;;4.65;34.79;98168.66;4503095;31;20177;-88
2021/12/27 08:25:19;;;;;;;14.75;5.50;;;;;;;4.77;34.78;98156.87;4488558;31;20096;-88
2021/12/27 08:27:45;;;;;;;13.60;5.62;;;;;;;4.82;35.04;98160.16;4502874;31;20372;-88
2021/12/27 08:30:12;;;;;;;12.45;5.10;;;;;;;4.89;35.04;98159.84;4502956;31;20084;-88
2021/12/27 08:32:40;;;;;;;14.02;4.95;;;;;;;5.05;35.14;98152.19;4502953;31;20884;-88
2021/12/27 08:35:06;;;;;;;;;;;;;;;5.10;34.05;98157.25;4503299;31;20157;-88
2021/12/27 08:37:32;;;;;;;15.27;5.53;;;;;;;5.05;33.09;98167.88;4503008;31;20047;-87
2021/12/27 08:39:58;;;;;;;13.40;4.95;;;;;;;5.05;33.61;98164.41;4502896;31;20092;-88
2021/12/27 08:42:23;;;;;;;12.82;4.65;;;;;;;5.10;32.18;98162.47;4502673;31;20084;-88
2021/12/27 08:44:49;;;;;;;16.17;4.78;;;;;;;4.98;32.69;98165.56;4502798;31;20345;-88
2021/12/27 08:47:15;;;;;;;15.73;4.82;;;;;;;4.97;32.86;98167.34;4502916;31;20084;-88
2021/12/27 08:49:41;;;;;;;12.52;4.22;;;;;;;4.90;31.81;98174.56;4502769;31;20088;-88
2021/12/27 08:52:07;;;;;;;13.45;4.40;;;;;;;5.02;33.06;98173.22;4502871;31;20076;-88
2021/12/27 08:54:32;;;;;;;14.52;4.85;;;;;;;5.17;33.08;98179.53;4502678;31;20187;-88
2021/12/27 08:56:57;;;;;;;13.52;4.10;;;;;;;5.19;31.87;98180.31;4488429;31;20459;-88
2021/12/27 08:59:23;;;;;;;13.25;4.68;;;;;;;5.15;30.96;98188.38;4502650;31;20337;-88
2021/12/27 09:01:49;;;;;;;10.88;4.00;;;;;;;5.28;31.50;98185.16;4502573;31;20106;-88
2021/12/27 09:04:14;;;;;;;16.98;5.37;;;;;;;5.50;31.29;98181.63;4487840;31;20103;-88
2021/12/27 09:06:39;;;;;;;13.48;5.00;;;;;;;5.59;31.33;98176.00;4488223;31;20108;-88
2021/12/27 09:09:05;;;;;;;15.10;5.07;;;;;;;5.65;31.31;98170.50;4502699;31;20424;-88
2021/12/27 09:11:31;;;;;;;14.02;4.47;;;;;;;5.65;31.30;98175.72;4502579;31;20144;-88
2021/12/27 09:13:57;;;;;;;13.40;5.10;;;;;;;5.57;31.17;98163.94;4502773;31;20100;-88
2021/12/27 09:16:22;;;;;;;13.30;4.45;;;;;;;5.64;31.48;98174.03;4475116;31;20127;-88
2021/12/27 09:18:48;;;;;;;15.38;4.80;;;;;;;5.67;31.32;98173.88;4502501;31;20333;-88
2021/12/27 09:21:13;;;;;;;13.25;4.22;;;;;;;5.71;31.26;98172.00;4488146;31;20092;-88
2021/12/27 09:23:39;;;;;;;15.45;5.62;;;;;;;5.70;29.97;98171.16;4502550;31;20095;-88
2021/12/27 09:26:04;;;;;;;11.95;4.32;;;;;;;5.65;30.27;98161.81;4502353;31;20113;-89
2021/12/27 09:28:30;;;;;;;12.48;4.75;;;;;;;5.80;30.02;98163.75;4502553;31;20396;-88
2021/12/27 09:30:57;;;;;;;11.35;4.15;;;;;;;5.93;29.74;98161.44;4474958;31;20423;-88
2021/12/27 09:33:22;;;;;;;11.82;4.10;;;;;;;5.95;28.03;98156.09;4502295;31;20609;-87
2021/12/27 09:35:48;;;;;;;10.68;3.67;;;;;;;5.98;27.86;98158.63;4487886;31;20118;-88
2021/12/27 09:38:13;;;;;;;12.52;4.00;;;;;;;6.01;27.16;98153.25;4502234;31;20347;-88
2021/12/27 09:40:39;;;;;;;14.13;4.93;;;;;;;6.07;27.86;98152.97;4487830;31;20103;-87
2021/12/27 09:43:05;;;;;;;11.35;4.57;;;;;;;6.15;28.41;98147.38;4502281;31;20146;-89
2021/12/27 09:45:30;;;;;;;11.38;4.60;;;;;;;6.09;28.23;98148.53;4487758;31;20100;-88
2021/12/27 09:47:56;;;;;;;13.80;3.92;;;;;;;6.20;28.65;98140.16;4502165;31;20122;-89
2021/12/27 09:50:29;;;;;;;12.55;4.25;;;;;;;6.29;28.56;98147.56;4488172;31;20088;-88
2021/12/27 09:52:54;;;;;;;12.18;3.85;;;;;;;6.44;28.17;98141.59;4502642;31;20092;-88
2021/12/27 09:55:20;;;;;;;11.20;3.75;;;;;;;6.48;26.65;98132.69;4502154;31;20092;-88
2021/12/27 09:57:46;;;;;;;13.25;4.03;;;;;;;6.42;27.04;98132.16;4502232;31;20143;-88
2021/12/27 10:00:12;;;;;;;11.52;4.05;;;;;;;6.46;26.73;98131.91;4502039;31;20092;-88
2021/12/27 10:02:39;;;;;;;14.07;3.97;;;;;;;6.55;26.38;98135.88;4487688;31;20099;-88
2021/12/27 10:05:05;;;;;;;12.32;3.90;;;;;;;6.60;26.35;98127.78;4502362;31;20387;-89
2021/12/27 10:07:30;;;;;;;11.68;4.15;;;;;;;6.62;26.33;98131.16;4501928;31;20084;-88
2021/12/27 10:09:59;;;;;;;12.85;4.28;;;;;;;6.67;25.80;98126.56;4501736;31;20092;-89
2021/12/27 10:12:26;;;;;;;11.82;4.07;;;;;;;6.68;26.21;98115.16;4487568;31;20107;-88
2021/12/27 10:15:03;;;;;;;10.40;3.78;;;;;;;6.72;25.88;98119.31;4501682;31;20093;-88
2021/12/27 10:17:33;;;;;;;12.80;4.18;;;;;;;6.75;25.16;98116.56;4489297;31;20111;-88
2021/12/27 10:20:18;;;;;;;11.02;3.60;;;;;;;6.75;25.54;98118.34;4504054;31;20080;-88
2021/12/27 10:22:45;;;;;;;11.93;3.50;;;;;;;6.73;25.86;98121.03;4489570;31;20733;-88
2021/12/27 10:25:15;;;;;;;11.93;3.90;;;;;;;6.93;26.26;98116.56;4503956;31;20104;-88
2021/12/27 10:27:41;;;;;;;15.10;4.15;;;;;;;7.02;25.00;98116.94;4504073;31;20104;-88
2021/12/27 10:30:12;;;;;;;11.75;3.80;;;;;;;7.00;25.12;98116.16;4504048;31;20121;-88
2021/12/27 10:32:38;;;;;;;11.60;3.62;;;;;;;6.98;24.46;98115.41;4504123;31;20107;-88
2021/12/27 10:35:06;;;;;;;11.40;3.67;;;;;;;7.04;24.65;98111.63;4489728;31;20515;-88
2021/12/27 10:37:32;;;;;;;11.77;4.00;;;;;;;7.04;24.56;98112.47;4503946;31;20084;-89
2021/12/27 10:40:03;;;;;;;13.15;4.10;;;;;;;7.07;24.71;98109.69;4503790;31;20486;-87
2021/12/27 10:42:33;;;;;;;12.73;4.32;;;;;;;7.13;25.34;98113.78;4503530;31;20123;-87
2021/12/27 10:45:07;;;;;;;13.38;4.18;;;;;;;7.16;24.60;98110.97;4489534;31;20160;-87
2021/12/27 10:47:32;;;;;;;11.90;4.12;;;;;;;7.07;23.58;98108.84;4503688;31;20096;-87
2021/12/27 10:50:03;;;;;;;13.70;3.83;;;;;;;7.03;24.06;98115.16;4503694;31;20222;-87
2021/12/27 10:52:46;;;;;;;10.93;3.60;;;;;;;7.04;24.17;98114.25;4503755;31;20722;-88
2021/12/27 10:55:14;;;;;;;11.00;3.78;;;;;;;7.12;24.35;98106.84;4489038;31;20099;-88
2021/12/27 10:57:39;;;;;;;10.63;3.72;;;;;;;7.11;23.92;98109.53;4489522;31;20088;-87
2021/12/27 11:00:24;;;;;;;11.07;3.53;;;;;;;7.21;24.47;98111.59;4503717;31;20126;-88
2021/12/27 11:02:51;;;;;;;12.55;3.30;;;;;;;7.13;24.29;98116.41;4503713;31;20103;-82
2021/12/27 11:05:23;;;;;;;12.77;4.00;;;;;;;7.18;23.73;98106.50;4503849;31;20115;-88
2021/12/27 11:07:50;;;;;;;10.45;3.55;;;;;;;7.19;23.47;98100.38;4503930;31;20091;-87
2021/12/27 11:10:15;;;;;;;11.75;3.65;;;;;;;7.33;23.98;98094.41;4503813;31;20446;-88
2021/12/27 11:12:41;;;;;;;11.65;3.45;;;;;;;7.24;23.27;98094.87;4503759;31;20104;-87
2021/12/27 11:15:10;;;;;;;12.05;3.90;;;;;;;7.28;23.43;98089.41;4503672;31;20092;-87
2021/12/27 11:17:38;;;;;;;13.48;3.72;;;;;;;7.20;24.35;98090.72;4489460;31;20092;-88
2021/12/27 11:20:05;;;;;;;;;;;;;;;7.35;23.87;98095.16;4504064;31;20107;-87
2021/12/27 11:22:30;;;;;;;10.95;3.33;;;;;;;7.40;23.42;98095.78;4503724;31;20035;-87
2021/12/27 11:24:56;;;;;;;11.77;3.53;;;;;;;7.38;23.68;98091.53;4503734;31;20168;-88
2021/12/27 11:27:21;;;;;;;13.07;3.80;;;;;;;7.25;24.57;98092.19;4503511;31;20130;-86
2021/12/27 11:30:09;;;;;;;11.85;3.97;;;;;;;7.45;24.75;98083.25;4504270;31;20084;-89
2021/12/27 11:32:35;;;;;;;11.98;3.87;;;;;;;7.52;23.38;98081.16;4504253;31;20096;-83
2021/12/27 11:35:08;;;;;;;11.10;4.20;;;;;;;7.54;24.42;98073.22;4489092;31;20096;-84
2021/12/27 11:37:42;;;;;;;11.68;4.05;;;;;;;7.56;24.25;98074.00;4503369;31;20114;-83